Time;durP1;ratioP1;P1;durP2;ratioP2;P2;SDS_P1;SDS_P2;PMS_P1;PMS_P2;Temp;Humidity;BMP_temperature;BMP_pressure;BME280_temperature;BME280_humidity;BME280_pressure;Samples;Min_cycle;Max_cycle;Signal;HPM_P1;HPM_P2
2022/05/22 00:00:18;;;;;;;;;8.75;7.50;;;27.15;97250.50;;;;117861;1186;25230;-59
2022/05/22 00:03:03;;;;;;;;;13.75;12.00;;;27.22;97253.25;;;;117858;1186;25317;-57
2022/05/22 00:05:33;;;;;;;;;9.00;9.00;;;27.21;97253.41;;;;117781;1186;25622;-58
2022/05/22 00:08:04;;;;;;;;;12.00;9.50;;;27.20;97251.77;;;;117453;1188;25742;-58
2022/05/22 00:10:35;;;;;;;;;7.00;7.00;;;27.18;97255.59;;;;117869;1188;25098;-58
2022/05/22 00:13:06;;;;;;;;;11.00;10.00;;;27.15;97253.84;;;;117866;1187;25498;-59
2022/05/22 00:15:37;;;;;;;;;7.75;7.25;;;27.15;97255.09;;;;117650;1188;25632;-57
2022/05/22 00:18:09;;;;;;;;;7.75;7.00;;;27.16;97257.45;;;;117861;1188;25516;-57
2022/05/22 00:20:38;;;;;;;;;8.50;7.75;;;27.16;97261.71;;;;117840;1186;25368;-57
2022/05/22 00:23:09;;;;;;;;;12.25;11.00;;;27.15;97260.73;;;;117826;1187;25529;-58
2022/05/22 00:25:38;;;;;;;;;9.75;7.75;;;27.14;97262.61;;;;117838;1188;26011;-58
2022/05/22 00:28:10;;;;;;;;;10.00;8.25;;;27.13;97258.31;;;;117788;1186;25317;-59
2022/05/22 00:30:42;;;;;;;;;7.50;7.50;;;27.13;97258.89;;;;117850;1187;25556;-58
2022/05/22 00:33:11;;;;;;;;;15.00;7.00;;;27.14;97260.84;;;;117846;1188;24832;-57
2022/05/22 00:35:43;;;;;;;;;10.00;9.00;;;27.14;97259.23;;;;117847;1187;24964;-58
2022/05/22 00:38:13;;;;;;;;;10.75;9.00;;;27.13;97263.55;;;;117854;1186;25358;-57
2022/05/22 00:40:43;;;;;;;;;10.25;8.25;;;27.13;97262.27;;;;117871;1186;25301;-57
2022/05/22 00:43:35;;;;;;;;;10.25;7.00;;;27.11;97263.65;;;;117824;1187;26078;-57
2022/05/22 00:46:11;;;;;;;;;11.00;10.25;;;27.13;97266.08;;;;117903;1186;24735;-58
2022/05/22 00:48:47;;;;;;;;;11.50;10.75;;;27.15;97267.17;;;;117861;1188;25431;-58
2022/05/22 00:51:26;;;;;;;;;9.50;8.75;;;27.16;97272.15;;;;117840;1188;25357;-57
2022/05/22 00:54:02;;;;;;;;;12.00;9.00;;;27.14;97275.98;;;;117862;1186;25573;-56
2022/05/22 00:56:43;;;;;;;;;8.25;7.25;;;27.16;97277.40;;;;117885;1188;25515;-57
2022/05/22 00:59:17;;;;;;;;;12.50;10.00;;;27.18;97276.41;;;;117896;1188;24928;-59
2022/05/22 01:01:49;;;;;;;;;10.00;8.75;;;27.17;97282.51;;;;117882;1186;25760;-58
2022/05/22 01:04:22;;;;;;;;;11.00;10.75;;;27.15;97285.83;;;;117851;1188;24729;-58
2022/05/22 01:06:53;;;;;;;;;12.25;10.00;;;27.14;97287.70;;;;117825;1187;25794;-58
2022/05/22 01:09:23;;;;;;;;;10.25;10.25;;;27.13;97287.79;;;;117847;1188;24968;-56
2022/05/22 01:12:00;;;;;;;;;10.00;8.75;;;27.10;97289.11;;;;117873;1187;24892;-58
2022/05/22 01:14:29;;;;;;;;;9.50;7.50;;;27.11;97291.71;;;;117449;1188;25667;-59
2022/05/22 01:17:08;;;;;;;;;9.50;8.25;;;27.11;97293.88;;;;117904;1188;25110;-57
2022/05/22 01:19:38;;;;;;;;;11.00;10.00;;;27.11;97294.95;;;;117876;1188;25114;-57
2022/05/22 01:22:12;;;;;;;;;9.25;5.50;;;27.13;97294.95;;;;117872;1188;26047;-58
2022/05/22 01:24:41;;;;;;;;;15.00;8.25;;;27.12;97296.77;;;;117881;1186;25631;-58
2022/05/22 01:27:17;;;;;;;;;11.67;9.33;;;27.12;97293.51;;;;117855;1186;25102;-58
2022/05/22 01:29:48;;;;;;;;;15.50;9.50;;;27.11;97294.94;;;;117851;1187;24727;-57
2022/05/22 01:32:17;;;;;;;;;8.75;7.25;;;27.10;97294.95;;;;117835;1188;25506;-58
2022/05/22 01:34:48;;;;;;;;;7.50;7.50;;;27.09;97290.96;;;;117856;1188;24746;-58
2022/05/22 01:37:18;;;;;;;;;9.25;9.25;;;27.06;97290.02;;;;117869;1186;24780;-58
2022/05/22 01:39:48;;;;;;;;;7.75;7.25;;;27.06;97290.61;;;;117891;1186;24868;-57
2022/05/22 01:42:18;;;;;;;;;8.33;8.33;;;27.07;97290.85;;;;117850;1188;25123;-58
2022/05/22 01:44:52;;;;;;;;;9.75;6.25;;;27.07;97291.45;;;;117868;1188;25636;-58
2022/05/22 01:47:21;;;;;;;;;8.50;8.50;;;27.09;97292.23;;;;117853;1187;25586;-58
2022/05/22 01:49:52;;;;;;;;;8.25;8.25;;;27.08;97288.30;;;;117869;1187;25009;-56
2022/05/22 01:52:23;;;;;;;;;11.25;8.50;;;27.05;97287.01;;;;117385;1189;24971;-57
2022/05/22 01:54:54;;;;;;;;;14.00;8.50;;;27.07;97290.04;;;;117862;1187;24780;-57
2022/05/22 01:57:28;;;;;;;;;10.75;7.50;;;27.06;97289.48;;;;117851;1186;24875;-57
2022/05/22 01:59:59;;;;;;;;;10.67;7.67;;;27.05;97286.52;;;;117431;1188;25264;-58
2022/05/22 02:02:30;;;;;;;;;9.67;7.00;;;27.05;97283.44;;;;117812;1186;25512;-59
2022/05/22 02:05:02;;;;;;;;;7.25;6.50;;;27.04;97284.81;;;;117857;1188;26213;-58
2022/05/22 02:10:22;;;;;;;;;6.33;6.33;;;27.04;97283.43;;;;117869;1188;25067;-59
2022/05/22 02:12:54;;;;;;;;;8.50;6.50;;;27.03;97285.47;;;;117458;1188;24998;-59
2022/05/22 02:15:24;;;;;;;;;10.00;7.67;;;27.03;97285.15;;;;117497;1189;25560;-58
2022/05/22 02:17:56;;;;;;;;;9.33;8.33;;;27.03;97287.55;;;;117856;1187;25703;-61
2022/05/22 02:20:27;;;;;;;;;8.25;7.50;;;27.04;97286.34;;;;117860;1187;24874;-58
2022/05/22 02:22:57;;;;;;;;;8.25;8.25;;;27.03;97290.19;;;;117880;1188;24818;-57
2022/05/22 02:25:31;;;;;;;;;8.75;8.00;;;27.03;97287.41;;;;117892;1187;24812;-57
2022/05/22 02:28:05;;;;;;;;;9.50;8.00;;;27.04;97285.45;;;;117833;1186;25313;-57
2022/05/22 02:30:38;;;;;;;;;7.00;7.00;;;27.05;97288.89;;;;117887;1186;24885;-57
2022/05/22 02:33:10;;;;;;;;;10.25;7.25;;;27.06;97289.65;;;;117859;1187;25448;-57
2022/05/22 02:35:41;;;;;;;;;8.50;7.75;;;27.06;97292.08;;;;117890;1187;26148;-58
2022/05/22 02:38:10;;;;;;;;;6.25;6.25;;;27.04;97293.12;;;;117908;1188;25466;-58
2022/05/22 02:40:40;;;;;;;;;10.00;7.67;;;27.04;97292.16;;;;117890;1186;25057;-58
2022/05/22 02:43:08;;;;;;;;;8.50;7.25;;;27.03;97294.59;;;;117912;1187;25500;-58
2022/05/22 02:45:41;;;;;;;;;11.67;7.33;;;27.02;97295.70;;;;117850;1188;26418;-56
2022/05/22 02:48:10;;;;;;;;;8.25;8.25;;;27.02;97297.70;;;;117849;1188;25227;-58
2022/05/22 02:50:40;;;;;;;;;7.00;6.50;;;27.02;97297.52;;;;117903;1188;24963;-57
2022/05/22 02:53:09;;;;;;;;;9.50;8.50;;;27.01;97299.86;;;;117822;1186;24892;-57
2022/05/22 02:55:41;;;;;;;;;12.25;7.25;;;27.00;97299.36;;;;117883;1186;25437;-58
2022/05/22 02:58:11;;;;;;;;;6.00;5.00;;;27.00;97297.72;;;;117868;1188;25619;-60
2022/05/22 03:00:41;;;;;;;;;7.50;7.50;;;27.01;97297.20;;;;117862;1186;25216;-58
2022/05/22 03:03:10;;;;;;;;;8.25;6.25;;;27.00;97294.48;;;;117872;1187;25027;-58
2022/05/22 03:08:34;;;;;;;;;7.75;7.75;;;26.98;97294.35;;;;117855;1187;24880;-59
2022/05/22 03:11:06;;;;;;;;;7.75;7.75;;;26.98;97296.70;;;;117888;1187;25446;-58
2022/05/22 03:13:34;;;;;;;;;6.67;5.00;;;26.99;97296.73;;;;117898;1186;25352;-59
2022/05/22 03:16:06;;;;;;;;;8.75;8.25;;;26.98;97297.42;;;;117916;1188;24910;-60
2022/05/22 03:18:37;;;;;;;;;8.00;8.00;;;26.98;97299.27;;;;117934;1188;25454;-59
2022/05/22 03:21:06;;;;;;;;;7.75;6.75;;;26.99;97298.02;;;;117863;1186;25535;-58
2022/05/22 03:23:38;;;;;;;;;9.25;7.75;;;26.98;97302.82;;;;117875;1186;25229;-58
2022/05/22 03:26:09;;;;;;;;;11.67;9.67;;;26.97;97302.84;;;;117877;1186;24901;-57
2022/05/22 03:28:40;;;;;;;;;7.25;6.25;;;26.97;97305.14;;;;117952;1187;25728;-58
2022/05/22 03:31:09;;;;;;;;;9.67;7.00;;;26.97;97306.73;;;;117886;1188;25066;-59
2022/05/22 03:33:40;;;;;;;;;8.00;7.00;;;26.97;97311.10;;;;117834;1187;24832;-58
2022/05/22 03:36:09;;;;;;;;;9.00;9.00;;;26.96;97309.20;;;;117847;1188;25514;-57
2022/05/22 03:38:39;;;;;;;;;7.00;5.25;;;26.95;97311.48;;;;117839;1188;25574;-58
2022/05/22 03:41:09;;;;;;;;;9.25;8.75;;;26.95;97313.33;;;;117472;1189;24821;-57
2022/05/22 03:43:37;;;;;;;;;11.00;5.00;;;26.94;97308.13;;;;117871;1187;25793;-59
2022/05/22 03:46:07;;;;;;;;;9.75;8.25;;;26.94;97309.70;;;;117895;1186;24860;-58
2022/05/22 03:48:40;;;;;;;;;8.00;8.00;;;26.95;97310.39;;;;117511;1188;25477;-58
2022/05/22 03:51:09;;;;;;;;;9.50;8.00;;;26.95;97313.02;;;;117862;1186;25398;-59
2022/05/22 03:53:40;;;;;;;;;6.25;6.25;;;26.95;97319.48;;;;117520;1189;25336;-58
2022/05/22 03:56:16;;;;;;;;;7.75;6.25;;;26.95;97319.77;;;;117857;1186;25216;-59
2022/05/22 03:58:48;;;;;;;;;9.00;7.75;;;26.96;97320.10;;;;117918;1187;25256;-58
2022/05/22 04:01:17;;;;;;;;;7.00;7.00;;;26.98;97321.30;;;;117853;1188;25296;-59
2022/05/22 04:03:48;;;;;;;;;6.00;6.00;;;26.98;97325.91;;;;117866;1188;25063;-58
2022/05/22 04:06:20;;;;;;;;;7.33;7.00;;;26.97;97326.32;;;;117858;1188;25203;-58
2022/05/22 04:08:49;;;;;;;;;8.25;8.00;;;26.96;97327.89;;;;117901;1186;25384;-58
2022/05/22 04:11:20;;;;;;;;;8.25;4.75;;;26.97;97328.98;;;;117516;1188;24742;-58
2022/05/22 04:13:50;;;;;;;;;7.75;7.75;;;26.96;97331.95;;;;117931;1188;25451;-57
2022/05/22 04:16:18;;;;;;;;;9.75;8.00;;;26.97;97334.37;;;;117892;1187;25193;-58
2022/05/22 04:18:49;;;;;;;;;10.50;8.00;;;26.95;97335.21;;;;117830;1187;25011;-58
2022/05/22 04:21:21;;;;;;;;;6.50;6.50;;;26.95;97335.50;;;;117871;1186;24980;-56
2022/05/22 04:26:38;;;;;;;;;6.00;6.00;;;26.95;97333.13;;;;117846;1187;25102;-58
2022/05/22 04:29:05;;;;;;;;;8.00;8.00;;;26.95;97337.71;;;;117886;1188;24791;-57
2022/05/22 04:31:34;;;;;;;;;10.75;9.00;;;26.93;97339.87;;;;117867;1187;25736;-56
2022/05/22 04:34:07;;;;;;;;;6.50;6.50;;;26.94;97342.04;;;;117899;1188;24943;-59
2022/05/22 04:36:38;;;;;;;;;9.00;8.50;;;26.94;97341.77;;;;117864;1186;25246;-57
2022/05/22 04:39:10;;;;;;;;;7.75;7.50;;;26.94;97344.16;;;;117879;1186;25569;-57
2022/05/22 04:41:38;;;;;;;;;7.75;7.25;;;26.95;97344.33;;;;117848;1188;25811;-56
2022/05/22 04:44:08;;;;;;;;;9.25;7.00;;;26.95;97342.23;;;;117926;1187;24955;-56
2022/05/22 04:47:03;;;;;;;;;7.25;7.25;;;26.96;97342.05;;;;117901;1187;25232;-56
2022/05/22 04:49:32;;;;;;;;;5.25;5.25;;;26.96;97335.09;;;;117874;1186;25582;-58
2022/05/22 04:52:04;;;;;;;;;8.25;7.25;;;26.96;97340.23;;;;117862;1187;24902;-59
2022/05/22 04:54:35;;;;;;;;;7.75;6.25;;;26.96;97336.27;;;;117899;1186;24849;-59
2022/05/22 04:57:04;;;;;;;;;8.67;7.00;;;26.96;97339.17;;;;117873;1186;24987;-58
2022/05/22 04:59:37;;;;;;;;;4.00;4.00;;;26.96;97336.79;;;;117921;1187;25584;-59
2022/05/22 05:02:10;;;;;;;;;13.75;8.75;;;26.99;97333.40;;;;117880;1188;25663;-58
2022/05/22 05:04:38;;;;;;;;;8.00;8.00;;;26.99;97329.39;;;;117854;1187;25566;-58
2022/05/22 05:07:09;;;;;;;;;8.00;7.00;;;26.99;97328.55;;;;118227;1186;25208;-58
2022/05/22 05:09:41;;;;;;;;;8.67;6.67;;;27.09;97319.48;;;;117858;1187;25792;-56
2022/05/22 05:12:10;;;;;;;;;6.33;6.33;;;27.05;97322.67;;;;117867;1188;24960;-57
2022/05/22 05:14:40;;;;;;;;;8.50;7.00;;;27.03;97326.84;;;;117845;1188;25641;-57
2022/05/22 05:17:15;;;;;;;;;5.00;5.00;;;27.02;97326.63;;;;117880;1186;25464;-59
2022/05/22 05:19:43;;;;;;;;;7.00;4.00;;;27.01;97328.55;;;;117890;1187;24913;-57
2022/05/22 05:22:15;;;;;;;;;8.75;8.00;;;27.02;97330.73;;;;117874;1188;25239;-58
2022/05/22 05:24:48;;;;;;;;;7.00;7.00;;;27.02;97335.00;;;;117369;1188;25417;-57
2022/05/22 05:27:17;;;;;;;;;9.25;5.75;;;27.02;97336.30;;;;117865;1186;24947;-57
2022/05/22 05:30:08;;;;;;;;;9.50;7.25;;;27.06;97341.98;;;;117856;1188;25687;-58
2022/05/22 05:32:37;;;;;;;;;9.50;7.75;;;27.08;97337.80;;;;117872;1186;25100;-58
2022/05/22 05:35:11;;;;;;;;;8.00;8.00;;;27.05;97335.77;;;;117497;1189;25474;-59
2022/05/22 05:37:39;;;;;;;;;8.75;6.25;;;27.04;97338.20;;;;117917;1188;26379;-60
2022/05/22 05:40:12;;;;;;;;;9.00;8.67;;;27.06;97338.32;;;;117893;1187;25612;-58
2022/05/22 05:42:42;;;;;;;;;10.00;8.67;;;27.06;97336.02;;;;117888;1187;25588;-62
2022/05/22 05:45:15;;;;;;;;;7.00;7.00;;;27.06;97340.98;;;;117855;1188;25670;-62
2022/05/22 05:47:47;;;;;;;;;6.50;5.25;;;27.05;97336.03;;;;117846;1186;25141;-62
2022/05/22 05:50:19;;;;;;;;;8.67;6.33;;;27.05;97337.94;;;;117856;1188;25605;-61
2022/05/22 05:52:51;;;;;;;;;8.50;7.50;;;27.05;97338.17;;;;117899;1186;25113;-62
2022/05/22 05:55:19;;;;;;;;;9.25;6.00;;;27.05;97345.23;;;;117856;1187;24942;-64
2022/05/22 05:58:12;;;;;;;;;7.25;6.25;;;27.12;97348.89;;;;117879;1187;25644;-60
2022/05/22 06:01:01;;;;;;;;;5.00;5.00;;;27.19;97348.35;;;;117873;1187;24935;-58
2022/05/22 06:03:32;;;;;;;;;7.75;6.25;;;27.19;97353.84;;;;117382;1189;26316;-59
2022/05/22 06:06:08;;;;;;;;;6.67;5.67;;;27.12;97356.51;;;;117864;1186;24940;-59
2022/05/22 06:08:39;;;;;;;;;5.67;5.00;;;27.11;97358.08;;;;117801;1187;25027;-59
2022/05/22 06:11:08;;;;;;;;;7.25;6.75;;;27.11;97353.08;;;;117914;1186;25045;-57
2022/05/22 06:13:39;;;;;;;;;7.25;7.25;;;27.10;97354.13;;;;117874;1187;25557;-57
2022/05/22 06:16:12;;;;;;;;;6.67;6.67;;;27.10;97353.89;;;;117888;1187;25179;-58
2022/05/22 06:18:44;;;;;;;;;6.25;5.00;;;27.09;97348.20;;;;117864;1187;25494;-60
2022/05/22 06:21:18;;;;;;;;;3.00;3.00;;;27.08;97347.64;;;;117864;1188;25155;-64
2022/05/22 06:23:50;;;;;;;;;7.00;7.00;;;27.08;97351.84;;;;117903;1188;25283;-61
2022/05/22 06:26:19;;;;;;;;;10.25;9.00;;;27.09;97344.17;;;;117904;1188;25487;-58
2022/05/22 06:28:51;;;;;;;;;8.33;6.33;;;27.10;97347.52;;;;117865;1186;25796;-63
2022/05/22 06:31:21;;;;;;;;;6.75;5.50;;;27.09;97345.11;;;;117905;1186;26417;-59
2022/05/22 06:33:50;;;;;;;;;7.50;7.50;;;27.09;97346.30;;;;117862;1188;25014;-58
2022/05/22 06:36:19;;;;;;;;;5.50;5.50;;;27.06;97343.57;;;;117878;1187;24831;-59
2022/05/22 06:41:42;;;;;;;;;6.00;6.00;;;27.07;97342.20;;;;117924;1187;25619;-57
2022/05/22 06:44:13;;;;;;;;;9.00;7.00;;;27.07;97342.94;;;;117846;1188;26188;-58
2022/05/22 06:46:41;;;;;;;;;5.00;5.00;;;27.07;97341.98;;;;117850;1186;26326;-58
2022/05/22 06:49:13;;;;;;;;;5.50;5.50;;;27.05;97339.77;;;;117860;1188;25773;-59
2022/05/22 06:51:42;;;;;;;;;5.50;4.25;;;27.05;97342.14;;;;117899;1188;25577;-58
2022/05/22 06:54:10;;;;;;;;;5.75;5.75;;;27.05;97343.28;;;;117873;1187;25428;-59
2022/05/22 06:56:43;;;;;;;;;7.50;7.50;;;27.05;97343.38;;;;117874;1187;25611;-58
2022/05/22 06:59:11;;;;;;;;;6.67;6.67;;;27.05;97338.37;;;;117873;1186;25022;-58
2022/05/22 07:01:42;;;;;;;;;6.00;5.50;;;27.04;97338.83;;;;117895;1187;25069;-58
2022/05/22 07:04:14;;;;;;;;;10.00;8.00;;;27.05;97338.58;;;;117903;1186;25334;-58
2022/05/22 07:06:45;;;;;;;;;6.50;6.50;;;27.06;97332.64;;;;117888;1188;25052;-59
2022/05/22 07:09:17;;;;;;;;;5.75;5.00;;;27.08;97331.04;;;;117839;1186;25152;-58
2022/05/22 07:11:49;;;;;;;;;6.33;4.67;;;27.12;97327.48;;;;117863;1187;25066;-58
2022/05/22 07:14:17;;;;;;;;;8.00;5.67;;;27.13;97333.02;;;;117915;1186;25590;-60
2022/05/22 07:16:47;;;;;;;;;7.00;6.25;;;27.13;97337.80;;;;117853;1187;25278;-62
2022/05/22 07:19:19;;;;;;;;;4.00;4.00;;;27.11;97342.22;;;;117951;1187;25146;-58
2022/05/22 07:21:48;;;;;;;;;8.75;8.75;;;27.11;97339.77;;;;117909;1186;25000;-58
2022/05/22 07:24:16;;;;;;;;;7.00;7.00;;;27.12;97337.52;;;;117841;1188;24932;-59
2022/05/22 07:26:46;;;;;;;;;5.00;5.00;;;27.12;97327.17;;;;117848;1188;25194;-62
2022/05/22 07:29:15;;;;;;;;;7.00;4.25;;;27.11;97326.08;;;;117889;1187;25270;-59
2022/05/22 07:31:45;;;;;;;;;7.00;6.50;;;27.09;97324.17;;;;117838;1186;25346;-57
2022/05/22 07:34:17;;;;;;;;;9.25;7.00;;;27.08;97334.39;;;;117933;1187;25498;-57
2022/05/22 07:36:49;;;;;;;;;9.67;7.00;;;27.08;97319.90;;;;117868;1187;25262;-58
2022/05/22 07:39:18;;;;;;;;;4.25;3.25;;;27.10;97321.73;;;;117906;1188;25725;-57
2022/05/22 07:41:48;;;;;;;;;8.75;7.50;;;27.11;97315.86;;;;117872;1188;24945;-58
2022/05/22 07:44:17;;;;;;;;;6.25;6.25;;;27.09;97312.00;;;;117750;1187;25546;-57
2022/05/22 07:46:48;;;;;;;;;7.25;6.75;;;27.10;97317.45;;;;117849;1186;25496;-58
2022/05/22 07:52:12;;;;;;;;;7.25;6.75;;;27.15;97317.36;;;;117850;1187;25105;-58
2022/05/22 07:54:51;;;;;;;;;5.67;5.67;;;27.16;97319.09;;;;117885;1188;25584;-58
2022/05/22 07:57:21;;;;;;;;;7.00;7.00;;;27.17;97315.86;;;;117892;1186;25580;-57
2022/05/22 07:59:53;;;;;;;;;2.50;2.00;;;27.16;97318.27;;;;117382;1189;26044;-56
2022/05/22 08:02:21;;;;;;;;;6.33;6.33;;;27.15;97312.99;;;;117873;1187;24779;-56
2022/05/22 08:04:52;;;;;;;;;5.25;4.75;;;27.16;97313.17;;;;117872;1186;24793;-59
2022/05/22 08:07:22;;;;;;;;;10.33;5.67;;;27.15;97307.23;;;;117850;1187;25416;-57
2022/05/22 08:09:52;;;;;;;;;10.00;7.00;;;27.15;97304.69;;;;117833;1186;25510;-57
2022/05/22 08:12:23;;;;;;;;;5.33;5.33;;;27.14;97301.70;;;;117462;1186;25655;-59
2022/05/22 08:14:51;;;;;;;;;6.33;5.67;;;27.13;97305.52;;;;117861;1187;25010;-57
2022/05/22 08:17:22;;;;;;;;;6.25;6.25;;;27.14;97305.06;;;;117912;1188;25349;-58
2022/05/22 08:19:51;;;;;;;;;8.50;7.50;;;27.15;97298.26;;;;117897;1188;25222;-56
2022/05/22 08:22:21;;;;;;;;;11.00;8.00;;;27.14;97298.84;;;;117881;1188;25205;-57
2022/05/22 08:24:53;;;;;;;;;9.75;6.50;;;27.14;97292.11;;;;117848;1187;25579;-57
2022/05/22 08:27:21;;;;;;;;;5.50;5.50;;;27.14;97290.30;;;;117877;1186;25408;-58
2022/05/22 08:29:49;;;;;;;;;9.75;7.00;;;27.15;97289.95;;;;117463;1188;25376;-58
2022/05/22 08:32:22;;;;;;;;;8.00;6.33;;;27.14;97279.77;;;;117874;1188;26218;-58
2022/05/22 08:34:55;;;;;;;;;6.25;6.25;;;27.15;97281.30;;;;117887;1187;25908;-58
2022/05/22 08:37:25;;;;;;;;;8.00;6.50;;;27.16;97282.86;;;;117873;1188;24815;-59
2022/05/22 08:39:55;;;;;;;;;4.00;4.00;;;27.16;97279.92;;;;117859;1186;24748;-59
2022/05/22 08:42:46;;;;;;;;;7.00;7.00;;;27.16;97282.81;;;;117854;1187;25621;-58
2022/05/22 08:45:18;;;;;;;;;7.67;7.00;;;27.21;97277.83;;;;117874;1186;25616;-57
2022/05/22 08:47:52;;;;;;;;;7.25;7.25;;;27.24;97281.70;;;;117856;1188;25186;-57
2022/05/22 08:50:20;;;;;;;;;6.25;5.50;;;27.23;97279.99;;;;117913;1188;25214;-57
2022/05/22 08:53:03;;;;;;;;;7.33;5.00;;;27.23;97277.63;;;;117866;1187;25710;-58
2022/05/22 08:59:01;;;;;;;;;7.33;6.67;;;27.27;97273.82;;;;117886;1187;25687;-58
2022/05/22 09:02:06;;;;;;;;;7.00;6.33;;;27.27;97283.02;;;;117838;1188;25677;-58
2022/05/22 09:04:48;;;;;;;;;4.00;4.00;;;27.33;97283.13;;;;117459;1187;25227;-59
2022/05/22 09:07:26;;;;;;;;;8.25;6.00;;;27.32;97279.98;;;;117904;1186;25085;-58
2022/05/22 09:10:19;;;;;;;;;7.00;7.00;;;27.30;97278.05;;;;117853;1186;25877;-58
2022/05/22 09:13:06;;;;;;;;;7.50;7.00;;;27.30;97282.98;;;;117862;1187;25582;-59
2022/05/22 09:16:06;;;;;;;;;9.00;8.00;;;27.33;97282.70;;;;117864;1186;24876;-57
2022/05/22 09:18:47;;;;;;;;;9.50;7.75;;;27.31;97283.91;;;;117870;1188;24984;-58
2022/05/22 09:21:32;;;;;;;;;7.75;7.25;;;27.29;97278.63;;;;117848;1188;26425;-57
2022/05/22 09:24:58;;;;;;;;;8.75;5.50;;;27.27;97275.00;;;;117853;1187;25581;-58
2022/05/22 09:27:56;;;;;;;;;9.33;8.33;;;27.41;97266.77;;;;117827;1188;25648;-58
2022/05/22 09:30:31;;;;;;;;;8.00;6.75;;;27.47;97277.08;;;;117893;1187;25577;-56
2022/05/22 09:33:07;;;;;;;;;5.00;4.67;;;27.41;97276.48;;;;117897;1186;25058;-58
2022/05/22 09:35:49;;;;;;;;;8.50;7.50;;;27.36;97265.48;;;;117951;1186;25612;-57
2022/05/22 09:38:32;;;;;;;;;5.50;5.50;;;27.38;97267.38;;;;117839;1188;25600;-56
2022/05/22 09:41:40;;;;;;;;;8.00;7.50;;;27.37;97261.11;;;;117883;1186;25158;-58
2022/05/22 09:44:23;;;;;;;;;6.75;5.75;;;27.44;97258.32;;;;117840;1186;25352;-56
2022/05/22 09:47:28;;;;;;;;;9.00;6.75;;;27.50;97248.41;;;;117875;1187;26454;-57
2022/05/22 09:50:02;;;;;;;;;4.50;4.50;;;27.43;97245.47;;;;117872;1188;24836;-57
2022/05/22 09:53:00;;;;;;;;;7.00;7.00;;;27.36;97243.38;;;;117876;1188;25702;-57
2022/05/22 09:55:44;;;;;;;;;7.00;5.00;;;27.36;97240.41;;;;117503;1188;25237;-58
2022/05/22 09:58:38;;;;;;;;;5.50;5.50;;;27.32;97239.87;;;;117845;1188;25409;-58
2022/05/22 10:01:10;;;;;;;;;8.75;7.25;;;27.32;97244.14;;;;117892;1188;25777;-58
2022/05/22 10:03:48;;;;;;;;;6.50;5.50;;;27.30;97239.03;;;;117896;1186;25102;-57
2022/05/22 10:06:28;;;;;;;;;8.75;8.50;;;27.29;97234.74;;;;117847;1188;25107;-57
2022/05/22 10:09:32;;;;;;;;;6.50;6.50;;;27.29;97238.19;;;;117875;1186;25911;-57
2022/05/22 10:12:21;;;;;;;;;7.50;7.00;;;27.38;97241.98;;;;117839;1187;25039;-57
2022/05/22 10:14:56;;;;;;;;;7.25;7.25;;;27.41;97239.54;;;;117867;1187;24800;-58
2022/05/22 10:17:28;;;;;;;;;4.75;4.75;;;27.37;97240.52;;;;117833;1188;25293;-57
2022/05/22 10:20:19;;;;;;;;;8.33;5.67;;;27.32;97240.17;;;;117856;1186;25460;-58
2022/05/22 10:23:17;;;;;;;;;8.50;6.50;;;27.34;97239.84;;;;117833;1187;25349;-58
2022/05/22 10:25:46;;;;;;;;;8.50;7.00;;;27.37;97239.59;;;;117881;1187;24934;-57
2022/05/22 10:28:22;;;;;;;;;6.50;6.25;;;27.32;97237.75;;;;117903;1188;24903;-58
2022/05/22 10:31:12;;;;;;;;;8.00;4.50;;;27.31;97240.04;;;;117877;1188;25587;-58
2022/05/22 10:34:22;;;;;;;;;6.00;4.50;;;27.35;97243.00;;;;117870;1188;24999;-57
2022/05/22 10:37:01;;;;;;;;;9.25;7.25;;;27.43;97241.67;;;;117805;1188;25126;-58
2022/05/22 10:39:30;;;;;;;;;9.00;9.00;;;27.41;97245.84;;;;117869;1188;25155;-57
2022/05/22 10:42:50;;;;;;;;;8.00;7.00;;;27.38;97246.84;;;;117926;1188;24817;-58
2022/05/22 10:45:36;;;;;;;;;7.25;5.25;;;27.39;97245.98;;;;117893;1187;25339;-57
2022/05/22 10:48:27;;;;;;;;;7.75;6.00;;;27.35;97243.13;;;;117863;1187;24761;-58
2022/05/22 10:51:18;;;;;;;;;5.50;5.50;;;27.34;97239.31;;;;117854;1187;25643;-58
2022/05/22 10:53:45;;;;;;;;;5.00;5.00;;;27.37;97239.41;;;;117853;1188;25738;-57
2022/05/22 10:56:16;;;;;;;;;6.25;4.75;;;27.35;97240.39;;;;117882;1186;25980;-57
2022/05/22 10:59:00;;;;;;;;;9.50;7.00;;;27.31;97238.62;;;;117876;1187;24849;-57
2022/05/22 11:01:31;;;;;;;;;8.75;8.00;;;27.31;97243.04;;;;117873;1187;25548;-58
2022/05/22 11:04:14;;;;;;;;;7.00;6.25;;;27.29;97239.58;;;;117888;1186;25731;-58
2022/05/22 11:07:00;;;;;;;;;6.75;5.75;;;27.28;97247.66;;;;117863;1186;25094;-55
2022/05/22 11:09:53;;;;;;;;;9.50;6.50;;;27.29;97246.39;;;;117900;1187;24977;-58
2022/05/22 11:12:24;;;;;;;;;9.00;6.25;;;27.34;97245.31;;;;117851;1188;25632;-57
2022/05/22 11:15:16;;;;;;;;;8.50;7.75;;;27.36;97238.80;;;;117864;1187;25721;-57
2022/05/22 11:17:44;;;;;;;;;8.00;6.00;;;27.37;97241.05;;;;117884;1188;25617;-58
2022/05/22 11:20:20;;;;;;;;;8.00;6.50;;;27.35;97238.69;;;;117847;1186;24880;-58
2022/05/22 11:23:01;;;;;;;;;8.00;6.33;;;27.32;97233.05;;;;117838;1186;24953;-57
2022/05/22 11:25:34;;;;;;;;;5.00;5.00;;;27.33;97230.71;;;;117869;1188;25636;-58
2022/05/22 11:28:29;;;;;;;;;6.75;6.25;;;27.34;97233.47;;;;117876;1186;25176;-57
2022/05/22 11:31:24;;;;;;;;;7.25;4.00;;;27.35;97227.64;;;;117877;1186;25636;-58
2022/05/22 11:34:12;;;;;;;;;7.00;7.00;;;27.33;97212.20;;;;117836;1188;25434;-57
2022/05/22 11:37:07;;;;;;;;;5.50;4.00;;;27.32;97224.65;;;;117857;1188;25308;-58
2022/05/22 11:39:56;;;;;;;;;7.25;7.00;;;27.32;97216.59;;;;117825;1187;25523;-58
2022/05/22 11:42:44;;;;;;;;;6.25;4.25;;;27.33;97215.15;;;;117871;1188;26066;-56
2022/05/22 11:45:52;;;;;;;;;7.75;5.00;;;27.34;97212.48;;;;117866;1187;25675;-58
2022/05/22 11:48:34;;;;;;;;;8.75;5.75;;;27.37;97216.90;;;;117884;1188;26122;-59
2022/05/22 11:51:17;;;;;;;;;4.25;3.00;;;27.35;97218.05;;;;117855;1187;25531;-57
2022/05/22 11:54:05;;;;;;;;;7.00;6.50;;;27.36;97212.64;;;;117458;1189;24931;-58
2022/05/22 11:56:43;;;;;;;;;4.00;4.00;;;27.40;97208.72;;;;117869;1186;25249;-57
2022/05/22 11:59:36;;;;;;;;;7.25;6.00;;;27.39;97214.77;;;;117871;1187;25215;-58
2022/05/22 12:02:42;;;;;;;;;6.67;6.67;;;27.41;97210.55;;;;117858;1188;25119;-57
2022/05/22 12:05:48;;;;;;;;;9.00;6.33;;;27.45;97207.36;;;;117305;1190;25785;-57
2022/05/22 12:08:38;;;;;;;;;6.50;6.50;;;27.49;97204.92;;;;117850;1186;25215;-58
2022/05/22 12:11:17;;;;;;;;;4.00;4.00;;;27.45;97190.30;;;;117814;1186;25700;-56
2022/05/22 12:14:29;;;;;;;;;5.00;4.50;;;27.43;97187.75;;;;117863;1187;25696;-58
2022/05/22 12:17:18;;;;;;;;;9.33;7.67;;;27.53;97177.64;;;;117841;1188;24949;-59
2022/05/22 12:20:13;;;;;;;;;6.25;5.50;;;27.52;97174.20;;;;117822;1187;25430;-58
2022/05/22 12:23:10;;;;;;;;;7.00;5.50;;;27.52;97176.89;;;;117815;1188;25345;-59
2022/05/22 12:25:51;;;;;;;;;6.50;5.50;;;27.51;97178.83;;;;117883;1188;26893;-59
2022/05/22 12:28:36;;;;;;;;;6.00;6.00;;;27.48;97178.77;;;;117896;1186;25899;-56
2022/05/22 12:31:09;;;;;;;;;7.00;5.00;;;27.48;97181.05;;;;117899;1188;25043;-57
2022/05/22 12:33:42;;;;;;;;;7.33;6.67;;;27.48;97185.11;;;;117894;1187;25417;-59
2022/05/22 12:36:11;;;;;;;;;6.25;5.00;;;27.47;97187.66;;;;117912;1187;25098;-57
2022/05/22 12:38:46;;;;;;;;;4.25;4.25;;;27.45;97192.29;;;;117861;1187;25360;-56
2022/05/22 12:41:18;;;;;;;;;5.00;4.67;;;27.45;97192.30;;;;117496;1188;25255;-57
2022/05/22 12:43:51;;;;;;;;;4.50;4.50;;;27.45;97176.59;;;;117915;1186;25068;-58
2022/05/22 12:46:22;;;;;;;;;6.00;6.00;;;27.44;97171.08;;;;117890;1186;25435;-57
2022/05/22 12:49:05;;;;;;;;;6.50;6.50;;;27.43;97169.08;;;;117905;1188;25071;-57
2022/05/22 12:51:39;;;;;;;;;8.00;7.00;;;27.49;97170.45;;;;117878;1188;25775;-57
2022/05/22 12:54:21;;;;;;;;;7.25;6.25;;;27.51;97164.85;;;;117893;1188;25620;-57
2022/05/22 12:56:50;;;;;;;;;6.50;4.75;;;27.52;97160.16;;;;117902;1188;25268;-58
2022/05/22 12:59:27;;;;;;;;;7.67;6.33;;;27.51;97165.89;;;;117905;1186;24889;-59
2022/05/22 13:01:57;;;;;;;;;7.50;7.50;;;27.51;97158.11;;;;117929;1188;25023;-57
2022/05/22 13:04:29;;;;;;;;;8.33;6.33;;;27.50;97150.55;;;;117860;1188;25067;-56